createdAt,value
2019-03-29T00:02:12.475Z,6.67
2019-03-29T00:07:39.951Z,6.13
2019-03-29T00:13:03.551Z,4.80
2019-03-29T00:18:28.472Z,5.70
2019-03-29T00:24:06.221Z,5.33
2019-03-29T00:29:19.791Z,4.40
2019-03-29T00:34:44.644Z,5.00
2019-03-29T00:40:09.596Z,5.43
2019-03-29T00:45:34.226Z,5.27
2019-03-29T00:50:59.500Z,5.27
2019-03-29T00:56:24.780Z,5.53
2019-03-29T01:01:49.731Z,5.40
2019-03-29T01:07:14.661Z,5.10
2019-03-29T01:12:39.401Z,5.20
2019-03-29T01:18:04.327Z,5.30
2019-03-29T01:23:29.064Z,5.53
2019-03-29T01:28:54.052Z,4.60
2019-03-29T01:34:19.186Z,5.10
2019-03-29T01:39:44.100Z,5.20
2019-03-29T01:45:10.519Z,5.33
2019-03-29T01:50:35.350Z,5.00
2019-03-29T01:56:00.368Z,4.97
2019-03-29T02:01:25.094Z,5.20
2019-03-29T02:06:49.893Z,5.20
2019-03-29T02:12:14.687Z,5.60
2019-03-29T02:17:39.682Z,5.30
2019-03-29T02:23:04.532Z,4.90
2019-03-29T02:28:29.147Z,4.87
2019-03-29T02:33:54.141Z,5.07
2019-03-29T02:39:18.666Z,4.70
2019-03-29T02:44:43.422Z,5.43
2019-03-29T02:50:09.177Z,5.20
2019-03-29T02:55:34.258Z,4.73
2019-03-29T03:00:59.401Z,5.03
2019-03-29T03:06:24.645Z,5.37
2019-03-29T03:11:49.572Z,5.33
2019-03-29T03:17:14.942Z,5.50
2019-03-29T03:22:40.275Z,4.40
2019-03-29T03:28:04.750Z,4.57
2019-03-29T03:33:29.697Z,4.97
2019-03-29T03:38:54.511Z,4.83
2019-03-29T03:44:19.577Z,4.77
2019-03-29T03:49:44.409Z,5.00
2019-03-29T03:55:08.997Z,4.10
2019-03-29T04:00:45.475Z,4.03
2019-03-29T04:06:10.081Z,4.10
2019-03-29T04:11:34.824Z,4.73
2019-03-29T04:17:00.019Z,3.83
2019-03-29T04:22:24.908Z,3.57
2019-03-29T04:27:49.601Z,4.40
2019-03-29T04:33:14.015Z,5.10
2019-03-29T04:38:39.346Z,6.93
2019-03-29T04:44:04.290Z,7.40
2019-03-29T04:49:29.609Z,8.73
2019-03-29T04:54:54.363Z,8.70
2019-03-29T05:00:19.266Z,8.90
2019-03-29T05:05:44.187Z,8.37
2019-03-29T05:11:09.499Z,9.30
2019-03-29T05:16:34.404Z,8.50
2019-03-29T05:21:59.248Z,8.00
2019-03-29T05:27:24.222Z,8.47
2019-03-29T05:32:48.636Z,8.63
2019-03-29T05:38:13.411Z,8.73
2019-03-29T05:43:38.684Z,8.97
2019-03-29T05:49:03.540Z,7.63
2019-03-29T05:54:28.449Z,6.67
2019-03-29T05:59:53.390Z,7.50
2019-03-29T06:05:17.967Z,7.30
2019-03-29T06:10:48.999Z,8.93
2019-03-29T06:16:09.208Z,8.50
2019-03-29T06:21:33.612Z,8.43
2019-03-29T06:26:58.752Z,7.73
2019-03-29T06:32:23.660Z,9.17
2019-03-29T06:37:48.943Z,9.80
2019-03-29T06:43:13.968Z,11.47
2019-03-29T06:48:38.926Z,12.50
2019-03-29T06:54:03.789Z,10.07
2019-03-29T06:59:28.583Z,9.43
2019-03-29T07:04:53.556Z,9.67
2019-03-29T07:10:19.353Z,8.70
2019-03-29T07:15:44.346Z,8.53
2019-03-29T07:21:20.795Z,8.67
2019-03-29T07:26:35.214Z,7.93
2019-03-29T07:32:00.081Z,7.60
2019-03-29T07:37:25.260Z,8.60
2019-03-29T07:42:50.187Z,9.07
2019-03-29T07:48:15.200Z,8.87
2019-03-29T07:53:39.914Z,8.80
2019-03-29T07:59:05.060Z,9.00
2019-03-29T08:04:29.985Z,8.47
2019-03-29T08:09:54.776Z,8.67
2019-03-29T08:15:19.967Z,9.07
2019-03-29T08:20:44.929Z,8.77
2019-03-29T08:26:10.035Z,9.07
2019-03-29T08:31:35.301Z,8.67
2019-03-29T08:37:00.332Z,8.00
2019-03-29T08:42:25.378Z,8.67
2019-03-29T08:47:50.126Z,9.33
2019-03-29T08:53:14.840Z,8.33
2019-03-29T08:58:39.356Z,9.13
2019-03-29T09:04:05.914Z,8.77
2019-03-29T09:09:31.123Z,8.90
2019-03-29T09:14:55.607Z,8.77
2019-03-29T09:20:20.474Z,9.13
2019-03-29T09:25:45.576Z,8.77
2019-03-29T09:31:10.946Z,10.13
2019-03-29T09:36:35.984Z,9.60
2019-03-29T09:42:00.678Z,8.60
2019-03-29T09:47:25.130Z,8.67
2019-03-29T09:52:51.523Z,8.73
2019-03-29T09:58:16.676Z,8.93
2019-03-29T10:03:41.548Z,8.70
2019-03-29T10:09:08.076Z,7.63
2019-03-29T10:14:33.710Z,8.70
2019-03-29T10:19:59.135Z,8.60
2019-03-29T10:25:24.009Z,8.67
2019-03-29T10:30:48.872Z,8.90
2019-03-29T10:36:13.555Z,8.20
2019-03-29T10:41:38.397Z,9.13
2019-03-29T10:47:02.905Z,7.87
2019-03-29T10:52:27.548Z,13.13
2019-03-29T10:57:52.798Z,9.20
2019-03-29T11:03:17.473Z,8.80
2019-03-29T11:08:43.719Z,7.60
2019-03-29T11:14:08.856Z,9.10
2019-03-29T11:19:33.716Z,7.03
2019-03-29T11:24:58.495Z,7.53
2019-03-29T11:30:23.635Z,6.47
2019-03-29T11:35:48.237Z,7.43
2019-03-29T11:41:12.986Z,6.70
2019-03-29T11:46:38.064Z,6.47
2019-03-29T11:52:03.487Z,6.37
2019-03-29T11:57:28.066Z,6.37
2019-03-29T12:02:53.145Z,5.77
2019-03-29T12:08:18.472Z,6.17
2019-03-29T12:13:43.673Z,5.90
2019-03-29T12:19:08.582Z,5.90
2019-03-29T12:24:33.612Z,5.90
2019-03-29T12:29:58.370Z,4.90
2019-03-29T12:35:23.043Z,6.83
2019-03-29T12:40:47.752Z,6.87
2019-03-29T12:46:12.629Z,4.60
2019-03-29T12:51:37.651Z,4.07
2019-03-29T12:57:06.606Z,4.93
2019-03-29T13:02:29.660Z,4.17
2019-03-29T13:07:54.582Z,4.43
2019-03-29T13:13:19.695Z,5.47
2019-03-29T13:18:45.095Z,4.10
2019-03-29T13:24:10.219Z,4.70
2019-03-29T13:29:34.619Z,6.40
2019-03-29T13:34:59.654Z,6.67
2019-03-29T13:40:24.587Z,4.43
2019-03-29T13:45:49.740Z,4.60
2019-03-29T13:51:14.547Z,4.50
2019-03-29T13:56:39.116Z,4.07
2019-03-29T14:02:05.341Z,4.23
2019-03-29T14:07:30.292Z,4.00
2019-03-29T14:12:55.651Z,4.03
2019-03-29T14:18:20.447Z,3.33
2019-03-29T14:23:45.201Z,5.60
2019-03-29T14:29:10.147Z,4.53
2019-03-29T14:34:34.772Z,3.40
2019-03-29T14:39:59.346Z,3.63
2019-03-29T14:45:24.302Z,3.43
2019-03-29T14:50:49.534Z,3.90
2019-03-29T14:56:14.951Z,3.80
2019-03-29T15:01:40.205Z,3.77
2019-03-29T15:07:05.432Z,3.10
2019-03-29T15:12:30.250Z,3.00
2019-03-29T15:17:55.165Z,3.30
2019-03-29T15:23:19.976Z,3.27
2019-03-29T15:28:44.898Z,2.93
2019-03-29T15:34:09.496Z,3.20
2019-03-29T15:39:34.259Z,3.57
2019-03-29T15:44:59.139Z,3.63
2019-03-29T15:50:23.883Z,3.17
2019-03-29T15:55:48.631Z,3.50
2019-03-29T16:01:14.963Z,4.00
2019-03-29T16:06:39.751Z,3.60
2019-03-29T16:12:04.319Z,3.70
2019-03-29T16:17:29.292Z,3.33
2019-03-29T16:22:54.017Z,3.07
2019-03-29T16:28:19.079Z,3.30
2019-03-29T16:33:44.016Z,4.30
2019-03-29T16:39:09.143Z,4.70
2019-03-29T16:44:33.701Z,3.80
2019-03-29T16:49:58.210Z,4.00
2019-03-29T16:55:23.046Z,4.10
2019-03-29T17:00:47.912Z,4.63
2019-03-29T17:06:12.742Z,5.03
2019-03-29T17:11:37.787Z,4.90
2019-03-29T17:17:03.247Z,5.33
2019-03-29T17:22:28.844Z,5.10
2019-03-29T17:27:53.879Z,4.00
2019-03-29T17:33:22.293Z,4.40
2019-03-29T17:38:46.054Z,5.13
2019-03-29T17:44:10.665Z,3.73
2019-03-29T17:49:36.217Z,5.07
2019-03-29T17:55:00.980Z,5.37
2019-03-29T18:00:25.831Z,4.57
2019-03-29T18:05:50.760Z,6.10
2019-03-29T18:11:16.210Z,4.80
2019-03-29T18:16:41.324Z,4.33
2019-03-29T18:22:07.541Z,4.47
2019-03-29T18:27:32.416Z,5.40
2019-03-29T18:32:57.508Z,3.40
2019-03-29T18:38:22.359Z,4.10
2019-03-29T18:43:47.833Z,4.40
2019-03-29T18:49:13.525Z,4.40
2019-03-29T18:54:38.079Z,10.13
2019-03-29T19:00:04.294Z,9.63
2019-03-29T19:05:29.386Z,6.33
2019-03-29T19:10:54.355Z,5.77
2019-03-29T19:16:19.737Z,6.67
2019-03-29T19:21:44.986Z,8.97
2019-03-29T19:27:09.402Z,6.27
2019-03-29T19:32:35.249Z,6.47
2019-03-29T19:38:00.290Z,6.33
2019-03-29T19:43:25.421Z,5.40
2019-03-29T19:48:50.639Z,6.20
2019-03-29T19:54:32.898Z,5.10
2019-03-29T19:59:58.108Z,5.50
2019-03-29T20:05:27.888Z,5.53
2019-03-29T20:10:52.970Z,4.83
2019-03-29T20:16:17.994Z,4.57
2019-03-29T20:21:42.755Z,6.00
2019-03-29T20:27:08.259Z,4.80
2019-03-29T20:32:33.699Z,5.17
2019-03-29T20:37:58.290Z,5.30
2019-03-29T20:43:23.647Z,4.27
2019-03-29T20:48:48.678Z,6.50
2019-03-29T20:54:14.429Z,4.70
2019-03-29T20:59:39.356Z,5.20
2019-03-29T21:05:04.391Z,4.80
2019-03-29T21:10:29.270Z,9.70
2019-03-29T21:15:56.523Z,5.30
2019-03-29T21:21:21.235Z,5.67
2019-03-29T21:26:46.546Z,5.43
2019-03-29T21:32:11.338Z,5.03
2019-03-29T21:37:36.799Z,4.90
2019-03-29T21:43:02.022Z,5.00
2019-03-29T21:48:29.159Z,6.53
2019-03-29T21:53:54.502Z,6.93
2019-03-29T21:59:19.566Z,5.00
2019-03-29T22:04:44.150Z,5.30
2019-03-29T22:10:10.939Z,5.50
2019-03-29T22:15:36.125Z,6.30
2019-03-29T22:21:00.744Z,5.27
2019-03-29T22:26:25.813Z,5.37
2019-03-29T22:31:51.098Z,5.10
2019-03-29T22:37:16.003Z,5.40
2019-03-29T22:42:40.617Z,5.37
2019-03-29T22:48:05.463Z,5.77
2019-03-29T22:53:30.475Z,5.87
2019-03-29T22:58:55.396Z,6.20
2019-03-29T23:04:20.457Z,6.00
2019-03-29T23:09:45.842Z,6.03
2019-03-29T23:15:10.851Z,5.73
2019-03-29T23:20:35.410Z,5.60
2019-03-29T23:26:00.476Z,6.40
2019-03-29T23:31:25.121Z,6.27
2019-03-29T23:36:49.941Z,5.70
2019-03-29T23:42:14.508Z,6.07
2019-03-29T23:47:39.838Z,5.93
2019-03-29T23:53:04.863Z,6.43
2019-03-29T23:58:29.995Z,6.33
